createdAt,value
2022-12-29T00:01:56.258Z,45498.16
2022-12-29T00:04:23.058Z,45494.16
2022-12-29T00:06:49.478Z,45486.16
2022-12-29T00:09:17.564Z,45506.16
2022-12-29T00:11:44.383Z,45482.16
2022-12-29T00:14:30.540Z,45490.16
2022-12-29T00:16:57.487Z,45510.16
2022-12-29T00:19:42.966Z,45494.16
2022-12-29T00:22:30.694Z,45516.13
2022-12-29T00:25:06.315Z,45514.13
2022-12-29T00:27:51.967Z,45502.16
2022-12-29T00:30:40.943Z,45506.16
2022-12-29T00:33:38.982Z,45490.16
2022-12-29T00:36:07.256Z,45502.16
2022-12-29T00:38:57.439Z,45506.16
2022-12-29T00:41:44.406Z,45490.16
2022-12-29T00:44:13.643Z,45498.16
2022-12-29T00:46:42.627Z,45474.16
2022-12-29T00:49:30.140Z,45514.13
2022-12-29T00:52:05.744Z,45520.13
2022-12-29T00:54:35.125Z,45500.16
2022-12-29T00:57:02.689Z,45494.16
2022-12-29T00:59:29.212Z,45518.13
2022-12-29T01:01:57.850Z,45486.16
2022-12-29T01:04:26.313Z,45510.16
2022-12-29T01:06:53.576Z,45502.16
2022-12-29T01:09:39.144Z,45522.13
2022-12-29T01:12:06.719Z,45512.16
2022-12-29T01:14:35.227Z,45514.13
2022-12-29T01:17:03.066Z,45510.16
2022-12-29T01:19:29.460Z,45504.16
2022-12-29T01:21:56.612Z,45496.16
2022-12-29T01:24:23.192Z,45506.16
2022-12-29T01:26:49.873Z,45516.13
2022-12-29T01:29:17.646Z,45500.16
2022-12-29T01:31:45.950Z,45484.16
2022-12-29T01:34:12.778Z,45506.16
2022-12-29T01:36:39.201Z,45490.16
2022-12-29T01:39:07.041Z,45496.16
2022-12-29T01:41:34.074Z,45502.16
2022-12-29T01:44:02.569Z,45498.16
2022-12-29T01:46:37.576Z,45494.16
2022-12-29T01:49:03.900Z,45476.16
2022-12-29T01:51:34.029Z,45504.16
2022-12-29T01:54:06.553Z,45492.16
2022-12-29T01:56:34.037Z,45502.16
2022-12-29T01:59:07.411Z,45502.16
2022-12-29T02:01:33.895Z,45490.16
2022-12-29T02:04:02.128Z,45492.16
2022-12-29T02:06:42.262Z,45494.16
2022-12-29T02:09:08.637Z,45492.16
2022-12-29T02:11:37.219Z,45506.16
2022-12-29T02:14:10.037Z,45482.16
2022-12-29T02:17:20.725Z,45494.16
2022-12-29T02:20:12.336Z,45502.16
2022-12-29T02:22:56.990Z,45468.19
2022-12-29T02:25:46.374Z,45504.16
2022-12-29T02:28:21.905Z,45476.16
2022-12-29T02:30:57.664Z,45486.16
2022-12-29T02:33:39.203Z,45490.16
2022-12-29T02:36:44.235Z,45482.16
2022-12-29T02:39:39.026Z,45494.16
2022-12-29T02:42:25.281Z,45472.16
2022-12-29T02:45:03.645Z,45484.16
2022-12-29T02:47:45.273Z,45486.16
2022-12-29T02:50:34.157Z,45510.16
2022-12-29T02:53:06.178Z,45490.16
2022-12-29T02:55:34.469Z,45486.16
2022-12-29T02:58:16.967Z,45482.16
2022-12-29T03:01:14.720Z,45508.16
2022-12-29T03:04:12.271Z,45490.16
2022-12-29T03:06:54.057Z,45474.16
2022-12-29T03:09:38.542Z,45484.16
2022-12-29T03:12:45.921Z,45474.16
2022-12-29T03:15:41.022Z,45474.16
2022-12-29T03:18:24.165Z,45492.16
2022-12-29T03:20:56.835Z,45486.16
2022-12-29T03:23:26.623Z,45500.16
2022-12-29T03:25:58.143Z,45478.16
2022-12-29T03:28:31.560Z,45484.16
2022-12-29T03:31:00.059Z,45494.16
2022-12-29T03:33:31.279Z,45486.16
2022-12-29T03:36:06.024Z,45492.16
2022-12-29T03:38:38.876Z,45466.19
2022-12-29T03:41:10.413Z,45478.16
2022-12-29T03:43:36.944Z,45498.16
2022-12-29T03:46:03.686Z,45482.16
2022-12-29T03:48:30.252Z,45474.16
2022-12-29T03:50:56.931Z,45494.16
2022-12-29T03:53:23.645Z,45486.16
2022-12-29T03:55:50.352Z,45488.16
2022-12-29T03:58:16.912Z,45490.16
2022-12-29T04:00:55.920Z,45490.16
2022-12-29T04:03:23.018Z,45482.16
2022-12-29T04:05:50.415Z,45484.16
2022-12-29T04:08:16.973Z,45488.16
2022-12-29T04:10:43.690Z,45466.19
2022-12-29T04:13:10.139Z,45498.16
2022-12-29T04:15:36.940Z,45494.16
2022-12-29T04:18:03.518Z,45494.16
2022-12-29T04:20:48.522Z,45490.16
2022-12-29T04:23:16.737Z,45470.19
2022-12-29T04:25:48.222Z,45498.16
2022-12-29T04:28:16.790Z,45498.16
2022-12-29T04:31:03.152Z,45490.16
2022-12-29T04:33:34.872Z,45494.16
2022-12-29T04:36:01.910Z,45476.16
2022-12-29T04:38:28.766Z,45486.16
2022-12-29T04:40:55.335Z,45502.16
2022-12-29T04:43:23.922Z,45474.16
2022-12-29T04:46:02.920Z,45482.16
2022-12-29T04:48:36.581Z,45482.16
2022-12-29T04:51:21.805Z,45492.16
2022-12-29T04:53:49.989Z,45480.16
2022-12-29T04:56:16.371Z,45486.16
2022-12-29T04:58:43.005Z,45486.16
2022-12-29T05:01:09.520Z,45482.16
2022-12-29T05:03:36.032Z,45474.16
2022-12-29T05:06:02.480Z,45490.16
2022-12-29T05:08:29.469Z,45482.16
2022-12-29T05:10:58.947Z,45490.16
2022-12-29T05:13:26.125Z,45494.16
2022-12-29T05:15:54.226Z,45482.16
2022-12-29T05:18:22.769Z,45502.16
2022-12-29T05:20:50.356Z,45502.16
2022-12-29T05:23:18.808Z,45514.13
2022-12-29T05:25:49.975Z,45498.16
2022-12-29T05:28:36.701Z,45496.16
2022-12-29T05:31:11.965Z,45500.16
2022-12-29T05:33:38.936Z,45500.16
2022-12-29T05:36:08.251Z,45512.16
2022-12-29T05:38:36.741Z,45508.16
2022-12-29T05:41:03.425Z,45518.13
2022-12-29T05:43:48.362Z,45514.13
2022-12-29T05:46:29.983Z,45516.13
2022-12-29T05:49:31.866Z,45506.16
2022-12-29T05:52:09.630Z,45490.16
2022-12-29T05:54:36.109Z,45510.16
2022-12-29T05:57:07.775Z,45510.16
2022-12-29T05:59:34.860Z,45474.16
2022-12-29T06:02:02.375Z,45498.16
2022-12-29T06:04:28.936Z,45510.16
2022-12-29T06:06:55.981Z,45506.16
2022-12-29T06:09:31.488Z,45506.16
2022-12-29T06:11:58.105Z,45510.16
2022-12-29T06:14:25.354Z,45510.16
2022-12-29T06:16:52.059Z,45510.16
2022-12-29T06:19:18.512Z,45502.16
2022-12-29T06:21:45.012Z,45482.16
2022-12-29T06:24:11.978Z,45490.16
2022-12-29T06:26:38.627Z,45514.13
2022-12-29T06:29:05.072Z,45500.16
2022-12-29T06:31:32.832Z,45518.13
2022-12-29T06:34:04.921Z,45498.16
2022-12-29T06:36:34.462Z,45506.16
2022-12-29T06:39:00.841Z,45482.16
2022-12-29T06:41:32.171Z,45502.16
2022-12-29T06:44:25.653Z,45508.16
2022-12-29T06:47:01.351Z,45494.16
2022-12-29T06:49:27.741Z,45514.13
2022-12-29T06:51:54.132Z,45498.16
2022-12-29T06:54:20.535Z,45518.13
2022-12-29T06:56:47.017Z,45506.16
2022-12-29T06:59:13.492Z,45514.13
2022-12-29T07:01:40.715Z,45510.16
2022-12-29T07:04:07.284Z,45512.16
2022-12-29T07:06:33.685Z,45520.13
2022-12-29T07:09:00.127Z,45494.16
2022-12-29T07:11:26.599Z,45486.16
2022-12-29T07:13:53.088Z,45506.16
2022-12-29T07:16:19.844Z,45508.16
2022-12-29T07:18:46.363Z,45506.16
2022-12-29T07:21:13.049Z,45506.16
2022-12-29T07:23:39.534Z,45502.16
2022-12-29T07:26:08.365Z,45510.16
2022-12-29T07:28:39.017Z,45510.16
2022-12-29T07:31:06.935Z,45514.13
2022-12-29T07:33:34.021Z,45504.16
2022-12-29T07:36:00.891Z,45510.16
2022-12-29T07:38:27.368Z,45482.16
2022-12-29T07:40:58.211Z,45494.16
2022-12-29T07:43:24.764Z,45514.13
2022-12-29T07:46:54.025Z,45490.16
2022-12-29T07:48:57.904Z,45514.13
2022-12-29T07:51:24.294Z,45522.13
2022-12-29T07:53:50.650Z,45500.16
2022-12-29T07:56:17.039Z,45506.16
2022-12-29T07:58:43.615Z,45514.13
2022-12-29T08:01:10.129Z,45498.16
2022-12-29T08:03:37.352Z,45506.16
2022-12-29T08:06:04.017Z,45474.16
2022-12-29T08:08:30.381Z,45508.16
2022-12-29T08:10:56.762Z,45510.16
2022-12-29T08:13:23.140Z,45496.16
2022-12-29T08:15:50.461Z,45514.13
2022-12-29T08:18:16.918Z,45506.16
2022-12-29T08:20:43.303Z,45490.16
2022-12-29T08:23:09.692Z,45500.16
2022-12-29T08:25:36.110Z,45506.16
2022-12-29T08:28:02.568Z,45482.16
2022-12-29T08:30:28.998Z,45500.16
2022-12-29T08:32:55.416Z,45514.13
2022-12-29T08:35:22.278Z,45498.16
2022-12-29T08:37:48.801Z,45482.16
2022-12-29T08:40:15.586Z,45508.16
2022-12-29T08:42:42.008Z,45518.13
2022-12-29T08:45:09.599Z,45512.16
2022-12-29T08:47:36.187Z,45504.16
2022-12-29T08:50:02.918Z,45524.13
2022-12-29T08:52:29.307Z,45518.13
2022-12-29T08:54:55.781Z,45502.16
2022-12-29T08:57:22.258Z,45502.16
2022-12-29T09:00:04.338Z,45506.16
2022-12-29T09:02:30.977Z,45490.16
2022-12-29T09:04:58.280Z,45518.13
2022-12-29T09:07:24.816Z,45506.16
2022-12-29T09:09:52.259Z,45500.16
2022-12-29T09:12:19.105Z,45490.16
2022-12-29T09:14:47.655Z,45506.16
2022-12-29T09:17:32.515Z,45486.16
2022-12-29T09:19:59.200Z,45502.16
2022-12-29T09:22:25.790Z,45510.16
2022-12-29T09:24:52.451Z,45508.16
2022-12-29T09:27:18.846Z,45502.16
2022-12-29T09:29:45.237Z,45514.13
2022-12-29T09:32:17.100Z,45512.16
2022-12-29T09:34:44.931Z,45478.16
2022-12-29T09:37:11.359Z,45494.16
2022-12-29T09:39:37.717Z,45502.16
2022-12-29T09:42:09.579Z,45490.16
2022-12-29T09:44:44.684Z,45508.16
2022-12-29T09:47:15.483Z,45506.16
2022-12-29T09:49:47.234Z,45490.16
2022-12-29T09:52:21.895Z,45486.16
2022-12-29T09:55:02.386Z,45488.16
2022-12-29T09:57:50.247Z,45502.16
2022-12-29T10:00:20.023Z,45498.16
2022-12-29T10:03:20.416Z,45510.16
2022-12-29T10:05:58.833Z,45496.16
2022-12-29T10:08:47.179Z,45504.16
2022-12-29T10:11:44.229Z,45506.16
2022-12-29T10:14:29.184Z,45502.16
2022-12-29T10:17:19.294Z,45500.16
2022-12-29T10:19:54.393Z,45522.13
2022-12-29T10:22:29.843Z,45478.16
2022-12-29T10:24:57.608Z,45474.16
2022-12-29T10:27:31.831Z,45492.16
2022-12-29T10:30:00.288Z,45496.16
2022-12-29T10:32:49.648Z,45478.16
2022-12-29T10:35:25.135Z,45484.16
2022-12-29T10:37:58.190Z,45510.16
2022-12-29T10:40:39.627Z,45498.16
2022-12-29T10:43:24.862Z,45482.16
2022-12-29T10:45:54.689Z,45486.16
2022-12-29T10:48:31.662Z,45516.13
2022-12-29T10:51:02.661Z,45494.16
2022-12-29T10:53:39.029Z,45502.16
2022-12-29T10:56:17.627Z,45490.16
2022-12-29T10:58:50.053Z,45494.16
2022-12-29T11:01:18.382Z,45502.16
2022-12-29T11:04:12.033Z,45484.16
2022-12-29T11:06:38.743Z,45474.16
2022-12-29T11:09:17.194Z,45490.16
2022-12-29T11:11:43.656Z,45506.16
2022-12-29T11:14:19.184Z,45482.16
2022-12-29T11:16:57.064Z,45488.16
2022-12-29T11:19:25.728Z,45494.16
2022-12-29T11:21:52.670Z,45488.16
2022-12-29T11:24:28.426Z,45486.16
2022-12-29T11:27:09.185Z,45480.16
2022-12-29T11:29:42.286Z,45486.16
2022-12-29T11:32:20.265Z,45482.16
2022-12-29T11:34:51.201Z,45486.16
2022-12-29T11:37:30.248Z,45484.16
2022-12-29T11:40:05.399Z,45486.16
2022-12-29T11:42:38.947Z,45478.16
2022-12-29T11:45:28.847Z,45480.16
2022-12-29T11:48:01.836Z,45482.16
2022-12-29T11:50:31.887Z,45458.19
2022-12-29T11:53:01.397Z,45502.16
2022-12-29T11:55:28.981Z,45482.16
2022-12-29T11:57:57.847Z,45496.16
2022-12-29T12:00:26.666Z,45466.19
2022-12-29T12:03:04.045Z,45474.16
2022-12-29T12:05:44.438Z,45474.16
2022-12-29T12:08:38.153Z,45474.16
2022-12-29T12:11:16.199Z,45478.16
2022-12-29T12:13:55.564Z,45476.16
2022-12-29T12:16:27.842Z,45482.16
2022-12-29T12:19:21.023Z,45466.19
2022-12-29T12:21:56.988Z,45454.19
2022-12-29T12:24:38.729Z,45478.16
2022-12-29T12:27:29.997Z,45484.16
2022-12-29T12:30:03.862Z,45490.16
2022-12-29T12:32:43.672Z,45482.16
2022-12-29T12:35:39.119Z,45484.16
2022-12-29T12:38:12.994Z,45494.16
2022-12-29T12:41:04.639Z,45474.16
2022-12-29T12:43:41.804Z,45486.16
2022-12-29T12:46:38.843Z,45464.19
2022-12-29T12:49:27.249Z,45466.19
2022-12-29T12:52:27.710Z,45468.19
2022-12-29T12:55:07.432Z,45452.19
2022-12-29T12:58:00.607Z,45478.16
2022-12-29T13:00:32.727Z,45490.16
2022-12-29T13:03:38.806Z,45478.16
2022-12-29T13:06:18.172Z,45480.16
2022-12-29T13:08:44.491Z,45492.16
2022-12-29T13:11:36.109Z,45478.16
2022-12-29T13:14:05.645Z,45482.16
2022-12-29T13:16:58.177Z,45498.16
2022-12-29T13:20:03.431Z,45478.16
2022-12-29T13:22:54.220Z,45480.16
2022-12-29T13:25:28.997Z,45482.16
2022-12-29T13:28:10.751Z,45482.16
2022-12-29T13:30:46.104Z,45486.16
2022-12-29T13:33:24.864Z,45490.16
2022-12-29T13:36:04.818Z,45502.16
2022-12-29T13:38:37.567Z,45490.16
2022-12-29T13:41:12.930Z,45470.19
2022-12-29T13:43:43.116Z,45490.16
2022-12-29T13:46:24.573Z,45474.16
2022-12-29T13:48:56.131Z,45488.16
2022-12-29T13:51:28.066Z,45490.16
2022-12-29T13:54:26.171Z,45486.16
2022-12-29T13:57:11.492Z,45490.16
2022-12-29T13:59:47.060Z,45478.16
2022-12-29T14:02:27.580Z,45486.16
2022-12-29T14:05:19.113Z,45486.16
2022-12-29T14:07:45.958Z,45484.16
2022-12-29T14:10:46.016Z,45482.16
2022-12-29T14:13:17.443Z,45476.16
2022-12-29T14:15:51.334Z,45516.13
2022-12-29T14:18:20.434Z,45500.16
2022-12-29T14:20:55.143Z,45486.16
2022-12-29T14:23:43.257Z,45494.16
2022-12-29T14:26:36.467Z,45498.16
2022-12-29T14:29:30.103Z,45478.16
2022-12-29T14:31:56.955Z,45506.16
2022-12-29T14:34:23.312Z,45494.16
2022-12-29T14:36:52.648Z,45498.16
2022-12-29T14:39:36.472Z,45490.16
2022-12-29T14:42:06.006Z,45496.16
2022-12-29T14:44:33.818Z,45490.16
2022-12-29T14:47:07.673Z,45518.13
2022-12-29T14:49:43.660Z,45506.16
2022-12-29T14:52:28.127Z,45486.16
2022-12-29T14:55:01.250Z,45506.16
2022-12-29T14:57:30.965Z,45486.16
2022-12-29T15:00:05.320Z,45478.16
2022-12-29T15:02:39.198Z,45494.16
2022-12-29T15:05:07.453Z,45500.16
2022-12-29T15:07:35.434Z,45506.16
2022-12-29T15:10:12.683Z,45478.16
2022-12-29T15:12:44.382Z,45506.16
2022-12-29T15:15:29.289Z,45484.16
2022-12-29T15:17:55.900Z,45512.16
2022-12-29T15:20:32.427Z,45496.16
2022-12-29T15:23:03.346Z,45500.16
2022-12-29T15:25:31.592Z,45494.16
2022-12-29T15:28:06.976Z,45498.16
2022-12-29T15:30:33.910Z,45486.16
2022-12-29T15:33:00.431Z,45506.16
2022-12-29T15:35:38.278Z,45478.16
2022-12-29T15:38:17.559Z,45498.16
2022-12-29T15:40:47.344Z,45502.16
2022-12-29T15:43:44.862Z,45518.13
2022-12-29T15:46:13.844Z,45506.16
2022-12-29T15:48:41.375Z,45504.16
2022-12-29T15:51:34.250Z,45504.16
2022-12-29T15:54:00.952Z,45488.16
2022-12-29T15:56:33.369Z,45510.16
2022-12-29T15:59:00.898Z,45494.16
2022-12-29T16:01:36.376Z,45494.16
2022-12-29T16:04:08.440Z,45508.16
2022-12-29T16:06:35.825Z,45506.16
2022-12-29T16:09:17.321Z,45510.16
2022-12-29T16:11:48.420Z,45502.16
2022-12-29T16:14:19.514Z,45534.13
2022-12-29T16:16:48.414Z,45504.16
2022-12-29T16:19:22.725Z,45514.13
2022-12-29T16:21:49.413Z,45506.16
2022-12-29T16:24:19.489Z,45496.16
2022-12-29T16:26:49.538Z,45526.13
2022-12-29T16:29:16.959Z,45520.13
2022-12-29T16:31:49.570Z,45522.13
2022-12-29T16:34:29.514Z,45506.16
2022-12-29T16:37:23.307Z,45514.13
2022-12-29T16:39:49.728Z,45510.16
2022-12-29T16:42:36.141Z,45530.13
2022-12-29T16:45:20.832Z,45538.13
2022-12-29T16:47:49.487Z,45538.13
2022-12-29T16:50:28.282Z,45540.13
2022-12-29T16:52:55.147Z,45558.09
2022-12-29T16:55:21.639Z,45566.09
2022-12-29T16:57:49.968Z,45566.09
2022-12-29T17:00:21.877Z,45566.09
2022-12-29T17:02:50.408Z,45558.09
2022-12-29T17:05:18.475Z,45582.09
2022-12-29T17:07:45.782Z,45572.09
2022-12-29T17:10:14.661Z,45572.09
2022-12-29T17:12:44.479Z,45568.09
2022-12-29T17:15:17.634Z,45570.09
2022-12-29T17:17:47.480Z,45570.09
2022-12-29T17:20:18.310Z,45572.09
2022-12-29T17:22:45.878Z,45572.09
2022-12-29T17:25:15.308Z,45586.09
2022-12-29T17:27:45.393Z,45594.09
2022-12-29T17:30:17.895Z,45574.09
2022-12-29T17:32:49.554Z,45598.06
2022-12-29T17:35:17.572Z,45596.06
2022-12-29T17:37:44.470Z,45590.09
2022-12-29T17:40:15.825Z,45594.09
2022-12-29T17:42:47.732Z,45562.09
2022-12-29T17:45:26.117Z,45596.06
2022-12-29T17:47:52.939Z,45590.09
2022-12-29T17:50:22.126Z,45578.09
2022-12-29T17:52:53.102Z,45582.09
2022-12-29T17:55:22.530Z,45618.06
2022-12-29T17:57:49.362Z,45586.09
2022-12-29T18:00:24.315Z,45602.06
2022-12-29T18:02:51.105Z,45592.09
2022-12-29T18:05:29.901Z,45622.06
2022-12-29T18:07:58.913Z,45600.06
2022-12-29T18:10:28.530Z,45614.06
2022-12-29T18:12:58.422Z,45608.06
2022-12-29T18:15:30.978Z,45618.06
2022-12-29T18:18:11.966Z,45602.06
2022-12-29T18:20:39.684Z,45582.09
2022-12-29T18:23:07.133Z,45594.09
2022-12-29T18:26:11.915Z,45606.06
2022-12-29T18:28:38.315Z,45594.09
2022-12-29T18:31:16.041Z,45598.06
2022-12-29T18:33:42.497Z,45598.06
2022-12-29T18:36:12.338Z,45586.09
2022-12-29T18:38:38.907Z,45596.06
2022-12-29T18:41:05.770Z,45598.06
2022-12-29T18:43:32.164Z,45612.06
2022-12-29T18:45:59.099Z,45606.06
2022-12-29T18:48:25.498Z,45602.06
2022-12-29T18:50:53.153Z,45594.09
2022-12-29T18:53:24.453Z,45608.06
2022-12-29T18:55:52.467Z,45590.09
2022-12-29T18:58:19.562Z,45604.06
2022-12-29T19:00:46.857Z,45590.09
2022-12-29T19:03:15.715Z,45616.06
2022-12-29T19:05:44.027Z,45612.06
2022-12-29T19:08:11.353Z,45582.09
2022-12-29T19:10:39.257Z,45594.09
2022-12-29T19:13:06.248Z,45614.06
2022-12-29T19:15:39.977Z,45602.06
2022-12-29T19:20:57.210Z,45588.09
2022-12-29T19:23:25.620Z,45594.09
2022-12-29T19:25:53.522Z,45608.06
2022-12-29T19:28:26.810Z,45584.09
2022-12-29T19:30:57.337Z,45614.06
2022-12-29T19:33:24.269Z,45604.06
2022-12-29T19:35:51.340Z,45606.06
2022-12-29T19:38:18.543Z,45602.06
2022-12-29T19:40:48.877Z,45598.06
2022-12-29T19:43:15.779Z,45592.09
2022-12-29T19:45:43.657Z,45596.06
2022-12-29T19:48:18.074Z,45602.06
2022-12-29T19:50:45.109Z,45622.06
2022-12-29T19:53:12.334Z,45610.06
2022-12-29T19:55:45.563Z,45598.06
2022-12-29T19:58:13.219Z,45588.09
2022-12-29T20:00:41.584Z,45610.06
2022-12-29T20:03:08.652Z,45586.09
2022-12-29T20:05:35.545Z,45634.06
2022-12-29T20:08:01.958Z,45608.06
2022-12-29T20:10:28.363Z,45634.06
2022-12-29T20:12:54.797Z,45610.06
2022-12-29T20:15:21.304Z,45620.06
2022-12-29T20:18:15.390Z,45610.06
2022-12-29T20:20:34.530Z,45618.06
2022-12-29T20:23:00.905Z,45622.06
2022-12-29T20:25:53.694Z,45628.06
2022-12-29T20:28:16.823Z,45596.06
2022-12-29T20:30:44.191Z,45626.06
2022-12-29T20:33:10.698Z,45614.06
2022-12-29T20:35:37.321Z,45616.06
2022-12-29T20:38:05.040Z,45614.06
2022-12-29T20:40:31.897Z,45582.09
2022-12-29T20:42:58.364Z,45598.06
2022-12-29T20:45:24.974Z,45584.09
2022-12-29T20:47:51.454Z,45608.06
2022-12-29T20:50:17.923Z,45598.06
2022-12-29T20:52:44.555Z,45618.06
2022-12-29T20:55:10.923Z,45632.06
2022-12-29T20:57:57.493Z,45610.06
2022-12-29T21:00:23.781Z,45588.09
2022-12-29T21:02:50.485Z,45594.09
2022-12-29T21:05:25.471Z,45618.06
2022-12-29T21:07:53.056Z,45622.06
2022-12-29T21:10:19.534Z,45610.06
2022-12-29T21:12:46.108Z,45614.06
2022-12-29T21:15:14.907Z,45616.06
2022-12-29T21:17:42.803Z,45622.06
2022-12-29T21:20:09.753Z,45620.06
2022-12-29T21:22:36.125Z,45618.06
2022-12-29T21:25:02.780Z,45624.06
2022-12-29T21:27:29.188Z,45606.06
2022-12-29T21:29:57.942Z,45608.06
2022-12-29T21:32:24.429Z,45620.06
2022-12-29T21:34:50.795Z,45622.06
2022-12-29T21:37:23.215Z,45634.06
2022-12-29T21:39:50.083Z,45614.06
2022-12-29T21:42:16.482Z,45614.06
2022-12-29T21:45:01.241Z,45586.09
2022-12-29T21:47:47.628Z,45616.06
2022-12-29T21:50:14.125Z,45614.06
2022-12-29T21:52:40.676Z,45618.06
2022-12-29T21:55:08.864Z,45622.06
2022-12-29T21:57:55.075Z,45606.06
2022-12-29T22:00:40.551Z,45608.06
2022-12-29T22:03:26.164Z,45594.09
2022-12-29T22:06:13.007Z,45626.06
2022-12-29T22:08:58.778Z,45602.06
2022-12-29T22:11:44.189Z,45614.06
2022-12-29T22:14:10.591Z,45618.06
2022-12-29T22:16:36.977Z,45610.06
2022-12-29T22:19:03.473Z,45610.06
2022-12-29T22:21:30.036Z,45618.06
2022-12-29T22:23:56.430Z,45622.06
2022-12-29T22:26:22.801Z,45626.06
2022-12-29T22:28:51.849Z,45630.06
2022-12-29T22:31:29.724Z,45618.06
2022-12-29T22:33:58.046Z,45642.03
2022-12-29T22:36:25.263Z,45600.06
2022-12-29T22:38:52.162Z,45626.06
2022-12-29T22:41:19.107Z,45618.06
2022-12-29T22:43:45.727Z,45606.06
2022-12-29T22:46:12.285Z,45612.06
2022-12-29T22:48:38.860Z,45626.06
2022-12-29T22:51:05.534Z,45626.06
2022-12-29T22:53:32.019Z,45618.06
2022-12-29T22:56:12.223Z,45632.06
2022-12-29T22:58:43.001Z,45624.06
2022-12-29T23:01:11.281Z,45638.06
2022-12-29T23:03:38.171Z,45634.06
2022-12-29T23:06:06.677Z,45612.06
2022-12-29T23:08:35.876Z,45606.06
2022-12-29T23:11:03.552Z,45614.06
2022-12-29T23:13:30.469Z,45614.06
2022-12-29T23:15:56.983Z,45622.06
2022-12-29T23:18:23.559Z,45610.06
2022-12-29T23:20:50.080Z,45626.06
2022-12-29T23:23:46.438Z,45618.06
2022-12-29T23:26:19.924Z,45638.06
2022-12-29T23:28:46.702Z,45622.06
2022-12-29T23:31:13.367Z,45622.06
2022-12-29T23:33:39.998Z,45618.06
2022-12-29T23:36:07.044Z,45586.09
2022-12-29T23:38:33.685Z,45634.06
2022-12-29T23:41:00.073Z,45630.06
2022-12-29T23:43:26.775Z,45614.06
2022-12-29T23:45:53.180Z,45612.06
2022-12-29T23:48:19.848Z,45622.06
2022-12-29T23:50:46.409Z,45624.06
2022-12-29T23:53:12.839Z,45596.06
2022-12-29T23:55:42.881Z,45618.06
2022-12-29T23:58:10.109Z,45614.06
